sensor_id;sensor_type;location;lat;lon;timestamp;P1;durP1;ratioP1;P2;durP2;ratioP2
71639;SDS011;60912;48.968;10.124;2023-06-24T00:02:13;7.17;;;4.03;;
71639;SDS011;60912;48.968;10.124;2023-06-24T00:04:39;5.57;;;4.20;;
71639;SDS011;60912;48.968;10.124;2023-06-24T00:07:04;7.10;;;4.20;;
71639;SDS011;60912;48.968;10.124;2023-06-24T00:09:30;6.30;;;3.97;;
71639;SDS011;60912;48.968;10.124;2023-06-24T00:11:56;6.18;;;4.35;;
71639;SDS011;60912;48.968;10.124;2023-06-24T00:14:24;6.50;;;4.23;;
71639;SDS011;60912;48.968;10.124;2023-06-24T00:16:51;7.57;;;4.13;;
71639;SDS011;60912;48.968;10.124;2023-06-24T00:19:20;6.97;;;4.20;;
71639;SDS011;60912;48.968;10.124;2023-06-24T00:21:46;6.15;;;4.03;;
71639;SDS011;60912;48.968;10.124;2023-06-24T00:24:13;8.33;;;3.93;;
71639;SDS011;60912;48.968;10.124;2023-06-24T00:26:39;6.80;;;4.32;;
71639;SDS011;60912;48.968;10.124;2023-06-24T00:29:04;6.10;;;4.10;;
71639;SDS011;60912;48.968;10.124;2023-06-24T00:31:29;7.27;;;4.60;;
71639;SDS011;60912;48.968;10.124;2023-06-24T00:33:55;5.55;;;4.00;;
71639;SDS011;60912;48.968;10.124;2023-06-24T00:36:20;7.17;;;4.30;;
71639;SDS011;60912;48.968;10.124;2023-06-24T00:38:46;7.40;;;4.40;;
71639;SDS011;60912;48.968;10.124;2023-06-24T00:41:13;6.18;;;4.20;;
71639;SDS011;60912;48.968;10.124;2023-06-24T00:43:41;6.68;;;4.28;;
71639;SDS011;60912;48.968;10.124;2023-06-24T00:46:06;6.23;;;4.10;;
71639;SDS011;60912;48.968;10.124;2023-06-24T00:48:32;7.93;;;4.57;;
71639;SDS011;60912;48.968;10.124;2023-06-24T00:50:57;7.10;;;4.20;;
71639;SDS011;60912;48.968;10.124;2023-06-24T00:53:23;8.27;;;4.27;;
71639;SDS011;60912;48.968;10.124;2023-06-24T00:55:50;6.82;;;4.47;;
71639;SDS011;60912;48.968;10.124;2023-06-24T00:58:16;7.25;;;4.18;;
71639;SDS011;60912;48.968;10.124;2023-06-24T01:00:45;6.90;;;4.25;;
71639;SDS011;60912;48.968;10.124;2023-06-24T01:03:12;5.97;;;4.38;;
71639;SDS011;60912;48.968;10.124;2023-06-24T01:05:38;7.13;;;4.47;;
71639;SDS011;60912;48.968;10.124;2023-06-24T01:08:05;7.30;;;4.30;;
71639;SDS011;60912;48.968;10.124;2023-06-24T01:10:31;7.00;;;4.22;;
71639;SDS011;60912;48.968;10.124;2023-06-24T01:12:57;6.93;;;4.30;;
71639;SDS011;60912;48.968;10.124;2023-06-24T01:15:23;5.90;;;4.25;;
71639;SDS011;60912;48.968;10.124;2023-06-24T01:20:24;7.13;;;4.30;;
71639;SDS011;60912;48.968;10.124;2023-06-24T01:28:33;5.87;;;4.37;;
71639;SDS011;60912;48.968;10.124;2023-06-24T01:36:43;6.67;;;4.47;;
71639;SDS011;60912;48.968;10.124;2023-06-24T01:39:14;7.70;;;4.40;;
71639;SDS011;60912;48.968;10.124;2023-06-24T01:41:43;6.80;;;4.38;;
71639;SDS011;60912;48.968;10.124;2023-06-24T01:44:16;6.97;;;4.30;;
71639;SDS011;60912;48.968;10.124;2023-06-24T01:46:46;6.03;;;4.32;;
71639;SDS011;60912;48.968;10.124;2023-06-24T01:49:16;6.10;;;4.03;;
71639;SDS011;60912;48.968;10.124;2023-06-24T01:51:43;6.60;;;4.10;;
71639;SDS011;60912;48.968;10.124;2023-06-24T01:54:12;7.20;;;4.35;;
71639;SDS011;60912;48.968;10.124;2023-06-24T01:56:41;7.10;;;4.63;;
71639;SDS011;60912;48.968;10.124;2023-06-24T01:59:08;5.93;;;4.13;;
71639;SDS011;60912;48.968;10.124;2023-06-24T02:01:36;6.05;;;4.40;;
71639;SDS011;60912;48.968;10.124;2023-06-24T02:04:05;6.15;;;4.30;;
71639;SDS011;60912;48.968;10.124;2023-06-24T02:06:33;7.20;;;4.22;;
71639;SDS011;60912;48.968;10.124;2023-06-24T02:09:00;6.20;;;4.30;;
71639;SDS011;60912;48.968;10.124;2023-06-24T02:11:28;5.78;;;4.10;;
71639;SDS011;60912;48.968;10.124;2023-06-24T02:13:55;8.38;;;4.40;;
71639;SDS011;60912;48.968;10.124;2023-06-24T02:16:21;5.88;;;3.90;;
71639;SDS011;60912;48.968;10.124;2023-06-24T02:18:47;7.68;;;4.65;;
71639;SDS011;60912;48.968;10.124;2023-06-24T02:21:14;6.40;;;4.33;;
71639;SDS011;60912;48.968;10.124;2023-06-24T02:23:43;6.60;;;4.05;;
71639;SDS011;60912;48.968;10.124;2023-06-24T02:26:09;5.82;;;3.70;;
71639;SDS011;60912;48.968;10.124;2023-06-24T02:28:36;6.43;;;4.40;;
71639;SDS011;60912;48.968;10.124;2023-06-24T02:31:02;6.43;;;4.30;;
71639;SDS011;60912;48.968;10.124;2023-06-24T02:33:29;6.07;;;4.30;;
71639;SDS011;60912;48.968;10.124;2023-06-24T02:35:54;6.28;;;4.13;;
71639;SDS011;60912;48.968;10.124;2023-06-24T02:38:20;6.60;;;4.53;;
71639;SDS011;60912;48.968;10.124;2023-06-24T02:40:45;7.20;;;4.00;;
71639;SDS011;60912;48.968;10.124;2023-06-24T02:43:10;8.10;;;4.30;;
71639;SDS011;60912;48.968;10.124;2023-06-24T02:45:36;6.80;;;4.10;;
71639;SDS011;60912;48.968;10.124;2023-06-24T02:48:01;6.17;;;4.00;;
71639;SDS011;60912;48.968;10.124;2023-06-24T02:50:27;5.40;;;3.88;;
71639;SDS011;60912;48.968;10.124;2023-06-24T02:52:53;7.20;;;4.50;;
71639;SDS011;60912;48.968;10.124;2023-06-24T02:55:19;6.28;;;4.22;;
71639;SDS011;60912;48.968;10.124;2023-06-24T02:57:46;7.25;;;4.47;;
71639;SDS011;60912;48.968;10.124;2023-06-24T03:00:12;6.68;;;4.18;;
71639;SDS011;60912;48.968;10.124;2023-06-24T03:02:39;7.70;;;4.20;;
71639;SDS011;60912;48.968;10.124;2023-06-24T03:05:06;6.90;;;4.10;;
71639;SDS011;60912;48.968;10.124;2023-06-24T03:07:32;5.55;;;4.10;;
71639;SDS011;60912;48.968;10.124;2023-06-24T03:10:01;6.38;;;4.03;;
71639;SDS011;60912;48.968;10.124;2023-06-24T03:12:27;5.88;;;4.00;;
71639;SDS011;60912;48.968;10.124;2023-06-24T03:14:53;6.07;;;4.23;;
71639;SDS011;60912;48.968;10.124;2023-06-24T03:17:19;6.95;;;4.50;;
71639;SDS011;60912;48.968;10.124;2023-06-24T03:19:44;6.77;;;4.20;;
71639;SDS011;60912;48.968;10.124;2023-06-24T03:22:10;7.57;;;3.93;;
71639;SDS011;60912;48.968;10.124;2023-06-24T03:24:35;6.50;;;4.07;;
71639;SDS011;60912;48.968;10.124;2023-06-24T03:27:00;6.22;;;4.05;;
71639;SDS011;60912;48.968;10.124;2023-06-24T03:29:26;6.40;;;4.23;;
71639;SDS011;60912;48.968;10.124;2023-06-24T03:31:51;4.87;;;3.77;;
71639;SDS011;60912;48.968;10.124;2023-06-24T03:34:17;6.63;;;3.90;;
71639;SDS011;60912;48.968;10.124;2023-06-24T03:36:42;6.10;;;3.83;;
71639;SDS011;60912;48.968;10.124;2023-06-24T03:39:08;5.87;;;4.00;;
71639;SDS011;60912;48.968;10.124;2023-06-24T03:41:33;6.37;;;3.80;;
71639;SDS011;60912;48.968;10.124;2023-06-24T03:43:59;7.78;;;4.32;;
71639;SDS011;60912;48.968;10.124;2023-06-24T03:46:25;7.10;;;4.20;;
71639;SDS011;60912;48.968;10.124;2023-06-24T03:48:50;6.43;;;4.18;;
71639;SDS011;60912;48.968;10.124;2023-06-24T03:51:16;7.57;;;4.13;;
71639;SDS011;60912;48.968;10.124;2023-06-24T03:53:41;5.22;;;3.67;;
71639;SDS011;60912;48.968;10.124;2023-06-24T03:56:07;5.83;;;4.03;;
71639;SDS011;60912;48.968;10.124;2023-06-24T03:58:32;6.40;;;3.83;;
71639;SDS011;60912;48.968;10.124;2023-06-24T04:00:59;5.70;;;3.70;;
71639;SDS011;60912;48.968;10.124;2023-06-24T04:03:25;5.80;;;3.85;;
71639;SDS011;60912;48.968;10.124;2023-06-24T04:05:52;6.45;;;3.80;;
71639;SDS011;60912;48.968;10.124;2023-06-24T04:08:18;7.67;;;4.47;;
71639;SDS011;60912;48.968;10.124;2023-06-24T04:10:44;6.05;;;4.05;;
71639;SDS011;60912;48.968;10.124;2023-06-24T04:13:09;5.43;;;3.70;;
71639;SDS011;60912;48.968;10.124;2023-06-24T04:15:34;5.43;;;3.63;;
71639;SDS011;60912;48.968;10.124;2023-06-24T04:18:00;5.70;;;3.90;;
71639;SDS011;60912;48.968;10.124;2023-06-24T04:20:25;5.40;;;3.72;;
71639;SDS011;60912;48.968;10.124;2023-06-24T04:22:51;6.10;;;3.67;;
71639;SDS011;60912;48.968;10.124;2023-06-24T04:25:16;5.00;;;3.83;;
71639;SDS011;60912;48.968;10.124;2023-06-24T04:27:41;5.40;;;4.00;;
71639;SDS011;60912;48.968;10.124;2023-06-24T04:30:07;6.50;;;3.90;;
71639;SDS011;60912;48.968;10.124;2023-06-24T04:32:33;5.10;;;3.67;;
71639;SDS011;60912;48.968;10.124;2023-06-24T04:34:58;4.63;;;3.40;;
71639;SDS011;60912;48.968;10.124;2023-06-24T04:37:28;5.25;;;3.40;;
71639;SDS011;60912;48.968;10.124;2023-06-24T04:39:53;5.63;;;3.60;;
71639;SDS011;60912;48.968;10.124;2023-06-24T04:42:18;6.77;;;4.00;;
71639;SDS011;60912;48.968;10.124;2023-06-24T04:44:44;5.50;;;3.87;;
71639;SDS011;60912;48.968;10.124;2023-06-24T04:47:09;5.03;;;3.77;;
71639;SDS011;60912;48.968;10.124;2023-06-24T04:49:34;5.40;;;4.00;;
71639;SDS011;60912;48.968;10.124;2023-06-24T04:52:00;5.60;;;3.60;;
71639;SDS011;60912;48.968;10.124;2023-06-24T04:54:26;5.82;;;3.80;;
71639;SDS011;60912;48.968;10.124;2023-06-24T04:56:52;6.32;;;3.50;;
71639;SDS011;60912;48.968;10.124;2023-06-24T04:59:20;5.60;;;3.60;;
71639;SDS011;60912;48.968;10.124;2023-06-24T05:01:45;6.95;;;4.10;;
71639;SDS011;60912;48.968;10.124;2023-06-24T05:04:11;6.80;;;4.20;;
71639;SDS011;60912;48.968;10.124;2023-06-24T05:06:36;8.40;;;3.77;;
71639;SDS011;60912;48.968;10.124;2023-06-24T05:09:01;7.73;;;3.50;;
71639;SDS011;60912;48.968;10.124;2023-06-24T05:11:27;6.40;;;3.90;;
71639;SDS011;60912;48.968;10.124;2023-06-24T05:13:52;5.00;;;3.20;;
71639;SDS011;60912;48.968;10.124;2023-06-24T05:16:18;6.43;;;3.50;;
71639;SDS011;60912;48.968;10.124;2023-06-24T05:18:44;5.00;;;2.97;;
71639;SDS011;60912;48.968;10.124;2023-06-24T05:21:10;4.53;;;3.00;;
71639;SDS011;60912;48.968;10.124;2023-06-24T05:23:36;4.80;;;3.00;;
71639;SDS011;60912;48.968;10.124;2023-06-24T05:26:01;5.93;;;3.20;;
71639;SDS011;60912;48.968;10.124;2023-06-24T05:28:26;4.30;;;3.10;;
71639;SDS011;60912;48.968;10.124;2023-06-24T05:30:52;4.13;;;3.00;;
71639;SDS011;60912;48.968;10.124;2023-06-24T05:33:17;4.70;;;3.00;;
71639;SDS011;60912;48.968;10.124;2023-06-24T05:35:43;5.43;;;3.00;;
71639;SDS011;60912;48.968;10.124;2023-06-24T05:38:08;5.10;;;2.70;;
71639;SDS011;60912;48.968;10.124;2023-06-24T05:40:34;5.53;;;3.13;;
71639;SDS011;60912;48.968;10.124;2023-06-24T05:42:59;3.97;;;2.83;;
71639;SDS011;60912;48.968;10.124;2023-06-24T05:45:25;4.95;;;3.08;;
71639;SDS011;60912;48.968;10.124;2023-06-24T05:47:51;4.47;;;2.90;;
71639;SDS011;60912;48.968;10.124;2023-06-24T05:50:16;4.53;;;3.10;;
71639;SDS011;60912;48.968;10.124;2023-06-24T05:52:42;4.03;;;2.90;;
71639;SDS011;60912;48.968;10.124;2023-06-24T05:55:07;5.97;;;2.90;;
71639;SDS011;60912;48.968;10.124;2023-06-24T05:57:33;4.53;;;2.80;;
71639;SDS011;60912;48.968;10.124;2023-06-24T05:59:58;4.88;;;2.78;;
71639;SDS011;60912;48.968;10.124;2023-06-24T06:02:23;5.23;;;3.20;;
71639;SDS011;60912;48.968;10.124;2023-06-24T06:04:49;5.80;;;3.20;;
71639;SDS011;60912;48.968;10.124;2023-06-24T06:07:15;6.18;;;3.10;;
71639;SDS011;60912;48.968;10.124;2023-06-24T06:09:40;4.40;;;3.00;;
71639;SDS011;60912;48.968;10.124;2023-06-24T06:12:06;9.03;;;3.10;;
71639;SDS011;60912;48.968;10.124;2023-06-24T06:14:32;6.30;;;3.20;;
71639;SDS011;60912;48.968;10.124;2023-06-24T06:16:57;5.63;;;3.03;;
71639;SDS011;60912;48.968;10.124;2023-06-24T06:19:23;4.83;;;3.00;;
71639;SDS011;60912;48.968;10.124;2023-06-24T06:21:51;4.45;;;2.60;;
71639;SDS011;60912;48.968;10.124;2023-06-24T06:24:17;4.43;;;2.90;;
71639;SDS011;60912;48.968;10.124;2023-06-24T06:26:42;4.95;;;2.92;;
71639;SDS011;60912;48.968;10.124;2023-06-24T06:29:09;4.93;;;2.80;;
71639;SDS011;60912;48.968;10.124;2023-06-24T06:31:35;6.13;;;2.87;;
71639;SDS011;60912;48.968;10.124;2023-06-24T06:34:00;4.95;;;2.90;;
71639;SDS011;60912;48.968;10.124;2023-06-24T06:36:26;4.67;;;3.00;;
71639;SDS011;60912;48.968;10.124;2023-06-24T06:38:52;4.55;;;2.90;;
71639;SDS011;60912;48.968;10.124;2023-06-24T06:41:18;4.20;;;2.73;;
71639;SDS011;60912;48.968;10.124;2023-06-24T06:43:49;5.45;;;2.95;;
71639;SDS011;60912;48.968;10.124;2023-06-24T06:46:14;4.77;;;2.40;;
71639;SDS011;60912;48.968;10.124;2023-06-24T06:48:42;4.13;;;2.47;;
71639;SDS011;60912;48.968;10.124;2023-06-24T06:51:08;5.30;;;2.70;;
71639;SDS011;60912;48.968;10.124;2023-06-24T06:53:33;5.88;;;2.80;;
71639;SDS011;60912;48.968;10.124;2023-06-24T06:55:58;4.33;;;2.67;;
71639;SDS011;60912;48.968;10.124;2023-06-24T06:58:24;4.37;;;2.50;;
71639;SDS011;60912;48.968;10.124;2023-06-24T07:00:49;5.90;;;2.50;;
71639;SDS011;60912;48.968;10.124;2023-06-24T07:03:15;6.67;;;2.67;;
71639;SDS011;60912;48.968;10.124;2023-06-24T07:05:40;5.47;;;2.90;;
71639;SDS011;60912;48.968;10.124;2023-06-24T07:08:06;5.50;;;2.53;;
71639;SDS011;60912;48.968;10.124;2023-06-24T07:10:31;5.05;;;2.90;;
71639;SDS011;60912;48.968;10.124;2023-06-24T07:12:57;4.70;;;2.73;;
71639;SDS011;60912;48.968;10.124;2023-06-24T07:15:24;5.25;;;4.72;;
71639;SDS011;60912;48.968;10.124;2023-06-24T07:17:50;5.10;;;3.00;;
71639;SDS011;60912;48.968;10.124;2023-06-24T07:20:16;4.75;;;2.72;;
71639;SDS011;60912;48.968;10.124;2023-06-24T07:22:41;5.43;;;2.70;;
71639;SDS011;60912;48.968;10.124;2023-06-24T07:25:07;4.23;;;2.80;;
71639;SDS011;60912;48.968;10.124;2023-06-24T07:27:32;5.00;;;2.90;;
71639;SDS011;60912;48.968;10.124;2023-06-24T07:29:57;5.00;;;2.83;;
71639;SDS011;60912;48.968;10.124;2023-06-24T07:32:23;4.53;;;2.70;;
71639;SDS011;60912;48.968;10.124;2023-06-24T07:34:48;4.23;;;2.93;;
71639;SDS011;60912;48.968;10.124;2023-06-24T07:37:14;6.97;;;3.00;;
71639;SDS011;60912;48.968;10.124;2023-06-24T07:39:39;4.47;;;2.70;;
71639;SDS011;60912;48.968;10.124;2023-06-24T07:42:04;4.37;;;2.80;;
71639;SDS011;60912;48.968;10.124;2023-06-24T07:44:30;4.23;;;2.63;;
71639;SDS011;60912;48.968;10.124;2023-06-24T07:46:55;4.30;;;2.77;;
71639;SDS011;60912;48.968;10.124;2023-06-24T07:49:21;4.15;;;2.70;;
71639;SDS011;60912;48.968;10.124;2023-06-24T07:51:46;6.10;;;2.97;;
71639;SDS011;60912;48.968;10.124;2023-06-24T07:54:11;4.10;;;2.87;;
71639;SDS011;60912;48.968;10.124;2023-06-24T07:56:37;4.47;;;2.93;;
71639;SDS011;60912;48.968;10.124;2023-06-24T07:59:02;5.13;;;3.20;;
71639;SDS011;60912;48.968;10.124;2023-06-24T08:01:28;5.28;;;3.15;;
71639;SDS011;60912;48.968;10.124;2023-06-24T08:03:53;5.30;;;3.03;;
71639;SDS011;60912;48.968;10.124;2023-06-24T08:06:19;6.27;;;3.10;;
71639;SDS011;60912;48.968;10.124;2023-06-24T08:08:45;4.43;;;2.90;;
71639;SDS011;60912;48.968;10.124;2023-06-24T08:11:11;5.03;;;3.10;;
71639;SDS011;60912;48.968;10.124;2023-06-24T08:13:37;6.15;;;3.38;;
71639;SDS011;60912;48.968;10.124;2023-06-24T08:16:03;5.27;;;2.90;;
71639;SDS011;60912;48.968;10.124;2023-06-24T08:18:28;4.80;;;3.17;;
71639;SDS011;60912;48.968;10.124;2023-06-24T08:20:54;5.00;;;3.30;;
71639;SDS011;60912;48.968;10.124;2023-06-24T08:23:19;5.37;;;3.10;;
71639;SDS011;60912;48.968;10.124;2023-06-24T08:25:45;5.80;;;3.10;;
71639;SDS011;60912;48.968;10.124;2023-06-24T08:28:10;6.47;;;3.00;;
71639;SDS011;60912;48.968;10.124;2023-06-24T08:30:36;5.53;;;3.30;;
71639;SDS011;60912;48.968;10.124;2023-06-24T08:33:01;4.47;;;3.10;;
71639;SDS011;60912;48.968;10.124;2023-06-24T08:35:27;4.93;;;3.20;;
71639;SDS011;60912;48.968;10.124;2023-06-24T08:37:52;4.37;;;2.83;;
71639;SDS011;60912;48.968;10.124;2023-06-24T08:40:17;5.20;;;3.13;;
71639;SDS011;60912;48.968;10.124;2023-06-24T08:42:43;6.10;;;2.80;;
71639;SDS011;60912;48.968;10.124;2023-06-24T08:45:09;5.60;;;3.08;;
71639;SDS011;60912;48.968;10.124;2023-06-24T08:47:34;7.30;;;3.13;;
71639;SDS011;60912;48.968;10.124;2023-06-24T08:50:08;6.53;;;3.28;;
71639;SDS011;60912;48.968;10.124;2023-06-24T08:52:37;5.13;;;3.00;;
71639;SDS011;60912;48.968;10.124;2023-06-24T08:55:04;4.20;;;2.90;;
71639;SDS011;60912;48.968;10.124;2023-06-24T08:57:36;6.32;;;3.08;;
71639;SDS011;60912;48.968;10.124;2023-06-24T09:00:02;5.20;;;3.28;;
71639;SDS011;60912;48.968;10.124;2023-06-24T09:02:30;5.80;;;3.00;;
71639;SDS011;60912;48.968;10.124;2023-06-24T09:04:57;5.43;;;3.03;;
71639;SDS011;60912;48.968;10.124;2023-06-24T09:07:26;5.13;;;2.90;;
71639;SDS011;60912;48.968;10.124;2023-06-24T09:09:55;5.67;;;3.07;;
71639;SDS011;60912;48.968;10.124;2023-06-24T09:12:21;4.35;;;3.00;;
71639;SDS011;60912;48.968;10.124;2023-06-24T09:14:50;4.88;;;3.20;;
71639;SDS011;60912;48.968;10.124;2023-06-24T09:17:19;7.17;;;3.17;;
71639;SDS011;60912;48.968;10.124;2023-06-24T09:19:47;5.80;;;3.00;;
71639;SDS011;60912;48.968;10.124;2023-06-24T09:22:13;4.30;;;2.90;;
71639;SDS011;60912;48.968;10.124;2023-06-24T09:24:42;4.82;;;2.92;;
71639;SDS011;60912;48.968;10.124;2023-06-24T09:27:15;4.13;;;2.60;;
71639;SDS011;60912;48.968;10.124;2023-06-24T09:29:45;4.10;;;2.60;;
71639;SDS011;60912;48.968;10.124;2023-06-24T09:32:12;5.47;;;2.63;;
71639;SDS011;60912;48.968;10.124;2023-06-24T09:34:40;4.88;;;3.08;;
71639;SDS011;60912;48.968;10.124;2023-06-24T09:37:06;4.28;;;2.53;;
71639;SDS011;60912;48.968;10.124;2023-06-24T09:39:38;4.23;;;2.47;;
71639;SDS011;60912;48.968;10.124;2023-06-24T09:42:05;3.65;;;2.45;;
71639;SDS011;60912;48.968;10.124;2023-06-24T09:44:33;4.82;;;2.47;;
71639;SDS011;60912;48.968;10.124;2023-06-24T09:46:59;4.38;;;2.45;;
71639;SDS011;60912;48.968;10.124;2023-06-24T09:49:25;3.37;;;2.13;;
71639;SDS011;60912;48.968;10.124;2023-06-24T09:51:54;4.60;;;2.07;;
71639;SDS011;60912;48.968;10.124;2023-06-24T09:54:32;4.60;;;2.40;;
71639;SDS011;60912;48.968;10.124;2023-06-24T09:56:59;4.03;;;2.42;;
71639;SDS011;60912;48.968;10.124;2023-06-24T09:59:26;4.40;;;2.38;;
71639;SDS011;60912;48.968;10.124;2023-06-24T10:01:54;3.70;;;2.30;;
71639;SDS011;60912;48.968;10.124;2023-06-24T10:04:21;5.07;;;2.40;;
71639;SDS011;60912;48.968;10.124;2023-06-24T10:06:52;5.05;;;2.10;;
71639;SDS011;60912;48.968;10.124;2023-06-24T10:09:19;3.30;;;2.10;;
71639;SDS011;60912;48.968;10.124;2023-06-24T10:11:45;3.37;;;2.20;;
71639;SDS011;60912;48.968;10.124;2023-06-24T10:14:16;3.50;;;2.20;;
71639;SDS011;60912;48.968;10.124;2023-06-24T10:16:43;4.15;;;2.40;;
71639;SDS011;60912;48.968;10.124;2023-06-24T10:19:09;4.00;;;2.30;;
71639;SDS011;60912;48.968;10.124;2023-06-24T10:24:29;5.72;;;2.47;;
71639;SDS011;60912;48.968;10.124;2023-06-24T10:26:55;4.00;;;2.40;;
71639;SDS011;60912;48.968;10.124;2023-06-24T10:29:35;4.72;;;2.38;;
71639;SDS011;60912;48.968;10.124;2023-06-24T10:32:03;4.23;;;2.20;;
71639;SDS011;60912;48.968;10.124;2023-06-24T10:34:32;5.03;;;2.40;;
71639;SDS011;60912;48.968;10.124;2023-06-24T10:42:26;4.78;;;2.60;;
71639;SDS011;60912;48.968;10.124;2023-06-24T10:44:53;4.07;;;2.33;;
71639;SDS011;60912;48.968;10.124;2023-06-24T10:47:23;3.90;;;2.60;;
71639;SDS011;60912;48.968;10.124;2023-06-24T10:49:54;5.43;;;2.65;;
71639;SDS011;60912;48.968;10.124;2023-06-24T10:52:20;4.00;;;2.50;;
71639;SDS011;60912;48.968;10.124;2023-06-24T10:54:47;3.75;;;2.22;;
71639;SDS011;60912;48.968;10.124;2023-06-24T10:57:14;4.80;;;2.57;;
71639;SDS011;60912;48.968;10.124;2023-06-24T10:59:41;4.13;;;2.40;;
71639;SDS011;60912;48.968;10.124;2023-06-24T11:02:12;3.85;;;2.38;;
71639;SDS011;60912;48.968;10.124;2023-06-24T11:04:48;4.07;;;2.57;;
71639;SDS011;60912;48.968;10.124;2023-06-24T11:07:19;4.18;;;2.45;;
71639;SDS011;60912;48.968;10.124;2023-06-24T11:09:53;3.55;;;2.25;;
71639;SDS011;60912;48.968;10.124;2023-06-24T11:12:27;3.67;;;2.33;;
71639;SDS011;60912;48.968;10.124;2023-06-24T11:14:56;5.55;;;2.42;;
71639;SDS011;60912;48.968;10.124;2023-06-24T11:17:23;4.10;;;2.23;;
71639;SDS011;60912;48.968;10.124;2023-06-24T11:19:48;3.75;;;2.10;;
71639;SDS011;60912;48.968;10.124;2023-06-24T11:22:15;4.70;;;2.30;;
71639;SDS011;60912;48.968;10.124;2023-06-24T11:24:40;3.72;;;2.40;;
71639;SDS011;60912;48.968;10.124;2023-06-24T11:27:06;3.95;;;2.20;;
71639;SDS011;60912;48.968;10.124;2023-06-24T11:29:32;3.90;;;2.50;;
71639;SDS011;60912;48.968;10.124;2023-06-24T11:32:00;4.35;;;2.28;;
71639;SDS011;60912;48.968;10.124;2023-06-24T11:34:26;3.40;;;2.13;;
71639;SDS011;60912;48.968;10.124;2023-06-24T11:36:52;3.67;;;2.03;;
71639;SDS011;60912;48.968;10.124;2023-06-24T11:39:24;4.78;;;2.28;;
71639;SDS011;60912;48.968;10.124;2023-06-24T11:41:51;3.67;;;2.20;;
71639;SDS011;60912;48.968;10.124;2023-06-24T11:44:18;3.78;;;2.60;;
71639;SDS011;60912;48.968;10.124;2023-06-24T11:46:48;3.50;;;2.20;;
71639;SDS011;60912;48.968;10.124;2023-06-24T11:49:14;4.13;;;2.30;;
71639;SDS011;60912;48.968;10.124;2023-06-24T11:51:49;4.15;;;2.50;;
71639;SDS011;60912;48.968;10.124;2023-06-24T11:54:18;4.10;;;2.30;;
71639;SDS011;60912;48.968;10.124;2023-06-24T11:56:48;3.80;;;2.20;;
71639;SDS011;60912;48.968;10.124;2023-06-24T11:59:16;4.37;;;2.37;;
71639;SDS011;60912;48.968;10.124;2023-06-24T12:01:45;3.92;;;2.53;;
71639;SDS011;60912;48.968;10.124;2023-06-24T12:04:16;3.88;;;2.42;;
71639;SDS011;60912;48.968;10.124;2023-06-24T12:06:42;3.57;;;2.20;;
71639;SDS011;60912;48.968;10.124;2023-06-24T12:09:08;3.10;;;2.28;;
71639;SDS011;60912;48.968;10.124;2023-06-24T12:11:34;3.60;;;2.20;;
71639;SDS011;60912;48.968;10.124;2023-06-24T12:13:59;3.73;;;2.27;;
71639;SDS011;60912;48.968;10.124;2023-06-24T12:16:24;3.50;;;2.17;;
71639;SDS011;60912;48.968;10.124;2023-06-24T12:18:51;4.13;;;2.38;;
71639;SDS011;60912;48.968;10.124;2023-06-24T12:21:16;3.87;;;2.40;;
71639;SDS011;60912;48.968;10.124;2023-06-24T12:23:42;6.23;;;2.40;;
71639;SDS011;60912;48.968;10.124;2023-06-24T12:26:07;4.18;;;2.15;;
71639;SDS011;60912;48.968;10.124;2023-06-24T12:28:33;3.30;;;2.27;;
71639;SDS011;60912;48.968;10.124;2023-06-24T12:30:58;4.27;;;2.40;;
71639;SDS011;60912;48.968;10.124;2023-06-24T12:33:23;4.17;;;2.40;;
71639;SDS011;60912;48.968;10.124;2023-06-24T12:35:49;3.15;;;2.15;;
71639;SDS011;60912;48.968;10.124;2023-06-24T12:38:14;3.67;;;2.30;;
71639;SDS011;60912;48.968;10.124;2023-06-24T12:40:41;3.72;;;2.30;;
71639;SDS011;60912;48.968;10.124;2023-06-24T12:43:06;3.53;;;2.27;;
71639;SDS011;60912;48.968;10.124;2023-06-24T12:45:31;4.67;;;2.53;;
71639;SDS011;60912;48.968;10.124;2023-06-24T12:47:57;5.70;;;2.20;;
71639;SDS011;60912;48.968;10.124;2023-06-24T12:50:22;4.13;;;2.45;;
71639;SDS011;60912;48.968;10.124;2023-06-24T12:52:48;3.50;;;2.23;;
71639;SDS011;60912;48.968;10.124;2023-06-24T12:55:13;4.20;;;2.60;;
71639;SDS011;60912;48.968;10.124;2023-06-24T12:57:38;4.33;;;2.30;;
71639;SDS011;60912;48.968;10.124;2023-06-24T13:00:04;4.17;;;2.40;;
71639;SDS011;60912;48.968;10.124;2023-06-24T13:02:33;3.90;;;2.30;;
71639;SDS011;60912;48.968;10.124;2023-06-24T13:05:00;4.00;;;2.60;;
71639;SDS011;60912;48.968;10.124;2023-06-24T13:07:25;3.63;;;2.23;;
71639;SDS011;60912;48.968;10.124;2023-06-24T13:09:51;4.45;;;2.50;;
71639;SDS011;60912;48.968;10.124;2023-06-24T13:12:16;5.77;;;2.50;;
71639;SDS011;60912;48.968;10.124;2023-06-24T13:14:41;4.00;;;2.40;;
71639;SDS011;60912;48.968;10.124;2023-06-24T13:17:07;3.63;;;2.50;;
71639;SDS011;60912;48.968;10.124;2023-06-24T13:19:34;3.63;;;2.30;;
71639;SDS011;60912;48.968;10.124;2023-06-24T13:21:59;4.80;;;2.60;;
71639;SDS011;60912;48.968;10.124;2023-06-24T13:24:25;3.63;;;2.33;;
71639;SDS011;60912;48.968;10.124;2023-06-24T13:26:50;5.27;;;2.40;;
71639;SDS011;60912;48.968;10.124;2023-06-24T13:29:16;5.32;;;2.30;;
71639;SDS011;60912;48.968;10.124;2023-06-24T13:31:42;9.30;;;2.73;;
71639;SDS011;60912;48.968;10.124;2023-06-24T13:34:07;4.57;;;2.30;;
71639;SDS011;60912;48.968;10.124;2023-06-24T13:36:36;3.72;;;2.40;;
71639;SDS011;60912;48.968;10.124;2023-06-24T13:39:04;4.20;;;2.30;;
71639;SDS011;60912;48.968;10.124;2023-06-24T13:41:31;5.00;;;2.93;;
71639;SDS011;60912;48.968;10.124;2023-06-24T13:44:03;3.70;;;2.50;;
71639;SDS011;60912;48.968;10.124;2023-06-24T13:46:31;4.45;;;2.45;;
71639;SDS011;60912;48.968;10.124;2023-06-24T13:48:57;6.13;;;2.33;;
71639;SDS011;60912;48.968;10.124;2023-06-24T13:51:23;4.85;;;2.50;;
71639;SDS011;60912;48.968;10.124;2023-06-24T13:53:50;4.80;;;2.50;;
71639;SDS011;60912;48.968;10.124;2023-06-24T13:56:16;4.35;;;2.60;;
71639;SDS011;60912;48.968;10.124;2023-06-24T13:58:42;4.18;;;2.53;;
71639;SDS011;60912;48.968;10.124;2023-06-24T14:01:08;3.60;;;2.20;;
71639;SDS011;60912;48.968;10.124;2023-06-24T14:03:33;3.90;;;2.40;;
71639;SDS011;60912;48.968;10.124;2023-06-24T14:05:59;3.53;;;2.40;;
71639;SDS011;60912;48.968;10.124;2023-06-24T14:08:26;3.85;;;2.40;;
71639;SDS011;60912;48.968;10.124;2023-06-24T14:10:53;4.15;;;2.40;;
71639;SDS011;60912;48.968;10.124;2023-06-24T14:13:19;4.03;;;2.20;;
71639;SDS011;60912;48.968;10.124;2023-06-24T14:15:44;3.80;;;2.30;;
71639;SDS011;60912;48.968;10.124;2023-06-24T14:18:10;3.80;;;2.20;;
71639;SDS011;60912;48.968;10.124;2023-06-24T14:20:35;3.87;;;2.37;;
71639;SDS011;60912;48.968;10.124;2023-06-24T14:23:00;4.07;;;2.27;;
71639;SDS011;60912;48.968;10.124;2023-06-24T14:25:26;4.47;;;2.40;;
71639;SDS011;60912;48.968;10.124;2023-06-24T14:27:51;3.70;;;2.35;;
71639;SDS011;60912;48.968;10.124;2023-06-24T14:30:17;3.63;;;2.30;;
71639;SDS011;60912;48.968;10.124;2023-06-24T14:32:42;4.05;;;2.45;;
71639;SDS011;60912;48.968;10.124;2023-06-24T14:35:08;4.20;;;2.23;;
71639;SDS011;60912;48.968;10.124;2023-06-24T14:37:34;3.93;;;2.57;;
71639;SDS011;60912;48.968;10.124;2023-06-24T14:39:59;3.83;;;2.10;;
71639;SDS011;60912;48.968;10.124;2023-06-24T14:42:24;3.95;;;2.30;;
71639;SDS011;60912;48.968;10.124;2023-06-24T14:44:50;4.90;;;2.50;;
71639;SDS011;60912;48.968;10.124;2023-06-24T14:47:15;4.50;;;2.60;;
71639;SDS011;60912;48.968;10.124;2023-06-24T14:49:40;3.50;;;2.27;;
71639;SDS011;60912;48.968;10.124;2023-06-24T14:52:06;4.47;;;2.70;;